Time;durP1;ratioP1;P1;durP2;ratioP2;P2;SDS_P1;SDS_P2;PMS_P1;PMS_P2;Temp;Humidity;BMP_temperature;BMP_pressure;BME280_temperature;BME280_humidity;BME280_pressure;Samples;Min_cycle;Max_cycle;Signal;HPM_P1;HPM_P2
2022/01/28 00:01:02;;;;;;;142.50;135.17;;;4.50;99.90;;;;;;4400588;32;20170;-65
2022/01/28 00:03:36;;;;;;;155.87;147.37;;;4.40;99.90;;;;;;4390652;32;20143;-60
2022/01/28 00:06:06;;;;;;;143.47;135.43;;;4.60;99.90;;;;;;4390763;32;20167;-63
2022/01/28 00:08:33;;;;;;;149.30;141.47;;;4.70;99.90;;;;;;4397306;32;20155;-62
2022/01/28 00:11:11;;;;;;;154.43;146.27;;;4.70;99.90;;;;;;4393467;32;20172;-63
2022/01/28 00:13:50;;;;;;;140.07;133.13;;;4.60;99.90;;;;;;4394801;32;20148;-63
2022/01/28 00:16:50;;;;;;;137.70;131.07;;;4.60;99.90;;;;;;4404711;32;20159;-63
2022/01/28 00:38:51;;;;;;;133.87;126.67;;;4.50;99.90;;;;;;4313896;33;20170;-63
2022/01/28 00:41:22;;;;;;;145.83;138.27;;;4.50;99.90;;;;;;4315951;33;20629;-63
2022/01/28 00:43:50;;;;;;;149.57;141.93;;;4.40;99.90;;;;;;4315954;33;20693;-61
2022/01/28 00:46:17;;;;;;;149.43;141.23;;;4.40;99.90;;;;;;4316015;33;20233;-62
2022/01/28 00:48:50;;;;;;;147.33;140.07;;;4.60;99.90;;;;;;4314162;33;20173;-64
2022/01/28 00:51:17;;;;;;;150.70;143.27;;;4.60;99.90;;;;;;4315962;33;20181;-62
2022/01/28 00:53:50;;;;;;;146.80;139.40;;;4.70;99.90;;;;;;4315785;33;20217;-62
2022/01/28 00:56:22;;;;;;;136.07;129.50;;;4.80;99.90;;;;;;4316057;33;20511;-63
2022/01/28 00:58:54;;;;;;;150.27;142.87;;;4.70;99.90;;;;;;4311192;33;20157;-64
2022/01/28 01:01:24;;;;;;;135.20;128.37;;;4.70;99.90;;;;;;4324361;33;20153;-61
2022/01/28 01:04:02;;;;;;;136.73;130.23;;;4.80;99.90;;;;;;4330179;33;20191;-63
2022/01/28 01:06:34;;;;;;;143.77;135.60;;;4.80;99.90;;;;;;4326703;32;20196;-62
2022/01/28 01:09:04;;;;;;;128.33;122.23;;;4.80;99.90;;;;;;4381280;32;20192;-63
2022/01/28 01:11:31;;;;;;;133.87;126.77;;;4.80;99.90;;;;;;4376828;32;20171;-62
2022/01/28 01:14:07;;;;;;;136.67;129.57;;;4.80;99.90;;;;;;4378362;32;20137;-63
2022/01/28 01:16:46;;;;;;;133.73;127.40;;;4.80;99.90;;;;;;4387190;32;20144;-62
2022/01/28 01:19:20;;;;;;;134.70;128.20;;;5.00;99.90;;;;;;4380775;32;20198;-62
2022/01/28 01:22:01;;;;;;;142.50;135.53;;;5.00;99.90;;;;;;4388122;32;20196;-62
2022/01/28 01:24:36;;;;;;;126.33;120.07;;;5.10;99.90;;;;;;4394425;32;20611;-62
2022/01/28 01:27:04;;;;;;;132.60;125.67;;;5.10;99.90;;;;;;4394846;32;20144;-62
2022/01/28 01:29:46;;;;;;;;;;;;;;;;;;;;;
2022/01/28 01:32:30;;;;;;;125.20;119.10;;;5.20;99.90;;;;;;4399921;32;20481;-62
2022/01/28 01:35:01;;;;;;;141.27;133.20;;;5.20;99.90;;;;;;4394925;32;20163;-62
2022/01/28 01:37:30;;;;;;;136.93;129.87;;;5.10;99.90;;;;;;4404552;32;20208;-62
2022/01/28 01:40:00;;;;;;;139.63;132.67;;;5.10;99.90;;;;;;4391305;32;20178;-62
2022/01/28 01:42:43;;;;;;;140.57;133.07;;;5.00;99.90;;;;;;4389811;32;20163;-61
2022/01/28 01:53:54;;;;;;;126.20;119.93;;;5.10;99.90;;;;;;4401698;32;20480;-61
2022/01/28 01:56:30;;;;;;;132.57;126.27;;;5.20;99.90;;;;;;4399004;32;20238;-61
2022/01/28 01:59:07;;;;;;;138.80;131.47;;;5.20;99.90;;;;;;4395885;32;20163;-61
2022/01/28 02:01:39;;;;;;;132.37;125.77;;;5.20;99.90;;;;;;4379488;32;20163;-62
2022/01/28 02:04:06;;;;;;;153.30;145.20;;;5.30;99.90;;;;;;4398618;32;20182;-61
2022/01/28 02:06:37;;;;;;;133.93;127.77;;;5.30;99.90;;;;;;4391531;32;20175;-61
2022/01/28 02:09:11;;;;;;;137.47;130.93;;;5.30;99.90;;;;;;4402928;32;20163;-61
2022/01/28 02:11:41;;;;;;;143.37;136.00;;;5.30;99.90;;;;;;4386064;32;20476;-61
2022/01/28 02:14:08;;;;;;;132.13;124.43;;;5.20;99.90;;;;;;4399608;32;20210;-61
2022/01/28 02:16:40;;;;;;;140.93;134.03;;;5.20;99.90;;;;;;4404859;32;20170;-61
2022/01/28 02:19:07;;;;;;;147.80;140.47;;;5.20;99.90;;;;;;4391644;32;20148;-61
2022/01/28 02:21:45;;;;;;;148.03;140.57;;;5.10;99.90;;;;;;4377104;32;20159;-61
2022/01/28 02:24:22;;;;;;;146.57;138.87;;;5.10;99.90;;;;;;4400523;32;20132;-62
2022/01/28 02:26:51;;;;;;;141.60;134.33;;;5.20;99.90;;;;;;4393970;32;20148;-62
2022/01/28 02:29:30;;;;;;;153.10;145.63;;;5.20;99.90;;;;;;4401988;32;20205;-62
2022/01/28 02:32:01;;;;;;;146.37;139.50;;;5.30;99.90;;;;;;4397925;32;20200;-61
2022/01/28 02:34:28;;;;;;;161.17;153.13;;;5.40;99.90;;;;;;4389536;32;20152;-62
2022/01/28 02:37:02;;;;;;;156.13;148.47;;;5.30;99.90;;;;;;4391075;32;20190;-61
2022/01/28 02:39:37;;;;;;;148.73;141.40;;;5.30;99.90;;;;;;4391342;32;20215;-62
2022/01/28 02:42:18;;;;;;;159.20;152.30;;;5.30;99.90;;;;;;4390027;32;20135;-63
2022/01/28 02:44:50;;;;;;;152.20;145.20;;;5.30;99.90;;;;;;4386718;32;20595;-62
2022/01/28 02:47:30;;;;;;;148.47;141.00;;;5.20;99.90;;;;;;4382221;32;20212;-61
2022/01/28 02:50:02;;;;;;;148.10;141.37;;;5.10;99.90;;;;;;4391531;32;20147;-61
2022/01/28 02:52:37;;;;;;;153.30;145.73;;;5.20;99.90;;;;;;4383060;32;20160;-61
2022/01/28 02:55:13;;;;;;;145.97;138.50;;;5.30;99.90;;;;;;4399731;32;20568;-62
2022/01/28 02:57:52;;;;;;;135.90;129.60;;;5.20;99.90;;;;;;4403809;32;20234;-61
2022/01/28 03:00:19;;;;;;;143.23;136.70;;;5.30;99.90;;;;;;4390468;32;20588;-62
2022/01/28 03:02:49;;;;;;;141.50;135.37;;;5.30;99.90;;;;;;4296700;32;3132304;-62
2022/01/28 03:05:34;;;;;;;143.70;136.60;;;5.30;99.90;;;;;;4404844;32;20571;-62
2022/01/28 03:08:06;;;;;;;139.97;132.90;;;5.10;99.90;;;;;;4401262;32;20179;-62
2022/01/28 03:13:30;;;;;;;127.17;120.97;;;5.00;99.90;;;;;;4383463;32;20182;-60
2022/01/28 03:16:08;;;;;;;120.70;114.77;;;4.90;99.90;;;;;;4394880;32;20140;-62
2022/01/28 03:18:50;;;;;;;138.07;131.30;;;4.80;99.90;;;;;;4398279;32;20160;-62
2022/01/28 03:21:36;;;;;;;130.57;123.97;;;4.90;99.90;;;;;;4399995;32;20204;-61
2022/01/28 03:24:09;;;;;;;125.03;118.57;;;4.90;99.90;;;;;;4388191;32;20209;-62
2022/01/28 03:26:41;;;;;;;142.03;134.50;;;4.80;99.90;;;;;;4384446;32;20147;-61
2022/01/28 03:29:12;;;;;;;139.50;132.70;;;5.00;99.90;;;;;;4395252;32;20148;-62
2022/01/28 03:34:45;;;;;;;118.50;113.00;;;4.80;99.90;;;;;;4346592;33;20570;-62
2022/01/28 03:37:14;;;;;;;127.47;121.23;;;4.80;99.90;;;;;;4345963;33;20330;-62
2022/01/28 03:39:45;;;;;;;122.50;117.00;;;4.70;99.90;;;;;;4348578;33;20554;-60
2022/01/28 03:42:18;;;;;;;138.83;131.90;;;4.70;99.90;;;;;;4342403;33;20231;-61
2022/01/28 03:45:04;;;;;;;133.67;127.40;;;4.80;99.90;;;;;;4343756;33;20172;-61
2022/01/28 03:47:31;;;;;;;127.43;121.20;;;4.70;99.90;;;;;;4344206;33;20145;-61
2022/01/28 03:50:06;;;;;;;124.00;118.33;;;4.60;99.90;;;;;;4355761;33;20558;-61
2022/01/28 03:52:33;;;;;;;131.93;124.97;;;4.60;99.90;;;;;;4339172;33;20195;-61
2022/01/28 03:55:08;;;;;;;128.07;121.63;;;4.50;99.90;;;;;;4338000;33;20176;-61
2022/01/28 03:57:37;;;;;;;126.53;120.33;;;4.50;99.90;;;;;;4344507;33;20171;-61
2022/01/28 04:00:07;;;;;;;129.53;123.03;;;4.60;99.90;;;;;;4400348;32;20163;-62
2022/01/28 04:02:40;;;;;;;145.87;138.20;;;4.50;99.90;;;;;;4387664;32;20145;-62
2022/01/28 04:13:48;;;;;;;120.07;114.33;;;4.40;99.90;;;;;;4389247;32;20182;-61
2022/01/28 04:16:32;;;;;;;136.47;129.87;;;4.30;99.90;;;;;;4396568;32;20144;-62
2022/01/28 04:19:09;;;;;;;131.77;124.97;;;4.30;99.90;;;;;;4399077;32;20163;-61
2022/01/28 04:21:39;;;;;;;149.00;141.10;;;4.30;99.90;;;;;;4391037;32;20476;-61
2022/01/28 04:24:08;;;;;;;141.57;134.30;;;4.20;99.90;;;;;;4391714;32;20500;-61
2022/01/28 04:26:41;;;;;;;146.17;139.13;;;4.10;99.90;;;;;;4404925;32;20140;-62
2022/01/28 04:29:13;;;;;;;138.20;131.03;;;4.20;99.90;;;;;;4406517;32;20143;-62
2022/01/28 04:31:48;;;;;;;136.17;129.23;;;4.10;99.90;;;;;;4397081;32;20132;-62
2022/01/28 04:34:17;;;;;;;133.27;126.90;;;4.10;99.90;;;;;;4389712;32;20123;-62
2022/01/28 04:36:55;;;;;;;130.77;123.80;;;4.10;99.90;;;;;;4396359;32;20148;-61
2022/01/28 04:39:30;;;;;;;129.67;123.33;;;4.10;99.90;;;;;;4395075;32;20143;-61
2022/01/28 04:42:12;;;;;;;133.50;126.33;;;4.10;99.90;;;;;;4382446;32;20194;-62
2022/01/28 04:44:58;;;;;;;132.93;125.67;;;4.10;99.90;;;;;;4392271;32;20159;-62
2022/01/28 04:47:38;;;;;;;136.47;129.47;;;4.00;99.90;;;;;;4394597;32;20469;-62
2022/01/28 04:50:22;;;;;;;136.27;129.83;;;4.20;99.90;;;;;;4398614;32;20163;-62
2022/01/28 04:53:11;;;;;;;132.83;126.00;;;4.30;99.90;;;;;;4402887;32;20144;-62
2022/01/28 04:56:04;;;;;;;130.87;123.83;;;4.30;99.90;;;;;;4398810;32;20576;-62
2022/01/28 04:58:54;;;;;;;123.30;117.23;;;4.30;99.90;;;;;;4393854;32;20623;-61
2022/01/28 05:01:43;;;;;;;115.67;110.13;;;4.40;99.90;;;;;;4380575;32;20459;-62
2022/01/28 05:04:38;;;;;;;122.93;116.37;;;4.30;99.90;;;;;;4385069;32;20145;-62
2022/01/28 05:07:26;;;;;;;120.87;114.60;;;4.30;99.90;;;;;;4403020;32;20139;-61
2022/01/28 05:10:29;;;;;;;123.63;117.07;;;4.20;99.90;;;;;;4395079;32;20179;-62
2022/01/28 05:16:22;;;;;;;121.63;115.50;;;4.40;99.90;;;;;;4393218;32;20220;-62
2022/01/28 05:25:01;;;;;;;126.53;119.67;;;4.20;99.90;;;;;;4384916;32;20472;-62
2022/01/28 05:27:39;;;;;;;113.70;108.30;;;4.20;99.90;;;;;;4388085;32;20159;-62
2022/01/28 05:30:19;;;;;;;118.20;112.10;;;4.10;99.90;;;;;;4397695;32;20144;-62
2022/01/28 05:32:49;;;;;;;116.67;111.30;;;4.00;99.90;;;;;;4385753;32;20556;-62
2022/01/28 05:35:21;;;;;;;125.77;119.73;;;3.90;99.90;;;;;;4388754;32;20151;-62
2022/01/28 05:37:49;;;;;;;136.03;128.87;;;3.90;99.90;;;;;;4396087;32;20181;-62
2022/01/28 05:40:24;;;;;;;135.33;128.77;;;3.90;99.90;;;;;;4400448;32;20185;-62
2022/01/28 05:42:56;;;;;;;136.93;129.83;;;3.90;99.90;;;;;;4401587;32;20158;-61
2022/01/28 05:45:29;;;;;;;138.73;131.97;;;3.90;99.90;;;;;;4388656;32;20214;-62
2022/01/28 05:47:58;;;;;;;144.57;137.80;;;3.90;99.90;;;;;;4406534;32;20569;-62
2022/01/28 05:50:35;;;;;;;140.77;134.27;;;3.90;99.90;;;;;;4400598;32;20140;-62
2022/01/28 05:53:03;;;;;;;137.73;130.87;;;3.90;99.90;;;;;;4384641;32;20190;-62
2022/01/28 05:55:37;;;;;;;142.93;135.90;;;3.80;99.90;;;;;;4387965;32;20598;-62
2022/01/28 05:58:06;;;;;;;129.80;123.80;;;3.90;99.90;;;;;;4399813;32;20219;-62
2022/01/28 06:00:33;;;;;;;139.10;131.67;;;3.80;99.90;;;;;;4399788;32;20144;-61
2022/01/28 06:03:10;;;;;;;138.83;131.93;;;3.80;99.90;;;;;;4383825;32;20263;-61
2022/01/28 06:05:48;;;;;;;123.30;117.13;;;3.70;99.90;;;;;;4375883;32;20144;-62
2022/01/28 06:08:20;;;;;;;138.73;131.80;;;3.70;99.90;;;;;;4378926;32;20174;-63
2022/01/28 06:10:50;;;;;;;139.40;132.30;;;3.80;99.90;;;;;;4391419;32;20491;-62
2022/01/28 06:13:17;;;;;;;141.53;134.57;;;3.70;99.90;;;;;;4387489;32;20179;-61
2022/01/28 06:15:47;;;;;;;145.57;138.50;;;3.70;99.90;;;;;;4388316;32;20422;-63
2022/01/28 06:18:18;;;;;;;142.13;134.07;;;3.60;99.90;;;;;;4395137;32;20223;-62
2022/01/28 06:20:59;;;;;;;132.40;125.97;;;3.60;99.90;;;;;;4387810;32;20139;-61
2022/01/28 06:23:30;;;;;;;145.57;138.53;;;3.70;99.90;;;;;;4393731;32;20160;-62
2022/01/28 06:26:03;;;;;;;136.00;129.27;;;3.70;99.90;;;;;;4391368;32;20137;-63
2022/01/28 06:28:32;;;;;;;149.27;142.20;;;3.70;99.90;;;;;;4386716;32;20175;-62
2022/01/28 06:31:04;;;;;;;135.03;127.57;;;3.70;99.90;;;;;;4390034;32;20214;-63
2022/01/28 06:33:38;;;;;;;131.37;125.40;;;3.60;99.90;;;;;;4387016;32;20160;-63
2022/01/28 06:36:22;;;;;;;134.60;127.83;;;3.80;99.90;;;;;;4384938;32;20163;-61
2022/01/28 06:38:56;;;;;;;135.43;129.17;;;3.70;99.90;;;;;;4385320;32;20611;-62
2022/01/28 06:41:27;;;;;;;141.97;135.17;;;3.70;99.90;;;;;;4385330;32;20229;-63
2022/01/28 06:44:11;;;;;;;146.67;139.23;;;3.60;99.90;;;;;;4394731;32;20198;-60
2022/01/28 06:49:27;;;;;;;139.50;132.27;;;3.80;99.90;;;;;;4392719;32;20180;-62
2022/01/28 06:52:03;;;;;;;133.97;127.37;;;3.80;99.90;;;;;;4387976;32;20153;-60
2022/01/28 06:54:36;;;;;;;140.50;132.53;;;3.90;99.90;;;;;;4381152;32;20156;-61
2022/01/28 07:00:10;;;;;;;134.20;127.47;;;4.00;99.90;;;;;;4345508;33;20235;-61
2022/01/28 07:02:50;;;;;;;133.17;126.87;;;4.10;99.90;;;;;;4346137;32;20159;-63
2022/01/28 07:05:45;;;;;;;121.27;115.40;;;4.20;99.90;;;;;;4344518;33;20218;-61
2022/01/28 07:08:12;;;;;;;119.73;114.07;;;4.20;99.90;;;;;;4342160;33;20149;-60
2022/01/28 07:10:54;;;;;;;131.03;124.37;;;4.10;99.90;;;;;;4340228;33;20414;-63
2022/01/28 07:13:25;;;;;;;123.07;116.87;;;4.10;99.90;;;;;;4345529;33;20161;-60
2022/01/28 07:15:59;;;;;;;127.37;121.07;;;4.10;99.90;;;;;;4351140;32;20167;-61
2022/01/28 07:18:32;;;;;;;135.93;129.60;;;4.20;99.90;;;;;;4344679;32;20201;-61
2022/01/28 07:21:26;;;;;;;143.60;136.07;;;4.30;99.90;;;;;;4346306;32;20605;-62
2022/01/28 07:24:00;;;;;;;120.27;113.53;;;4.20;99.90;;;;;;4298099;33;20184;-63
2022/01/28 07:26:41;;;;;;;131.27;125.10;;;4.10;99.90;;;;;;4294317;33;20149;-61
2022/01/28 07:29:15;;;;;;;137.63;131.13;;;4.20;99.90;;;;;;4294547;33;20166;-61
2022/01/28 07:32:03;;;;;;;120.63;114.50;;;4.30;99.90;;;;;;4318990;33;20158;-61
2022/01/28 07:34:37;;;;;;;120.43;114.83;;;4.20;99.90;;;;;;4317846;33;20184;-60
2022/01/28 07:37:11;;;;;;;135.37;128.60;;;4.30;99.90;;;;;;4321917;33;20168;-63
2022/01/28 07:39:51;;;;;;;120.47;113.97;;;4.10;99.90;;;;;;4322356;33;20593;-63
2022/01/28 07:42:33;;;;;;;119.60;113.50;;;4.00;99.90;;;;;;4329848;33;20161;-61
2022/01/28 07:45:16;;;;;;;131.10;124.80;;;4.00;99.90;;;;;;4330779;33;20161;-65
2022/01/28 07:47:47;;;;;;;120.07;113.90;;;4.00;99.90;;;;;;4327626;33;20161;-63
2022/01/28 07:50:15;;;;;;;126.47;119.90;;;4.00;99.90;;;;;;4328182;33;20232;-63
2022/01/28 07:52:55;;;;;;;126.40;120.23;;;4.00;99.90;;;;;;4321189;33;20481;-62
2022/01/28 07:55:25;;;;;;;129.10;122.80;;;3.90;99.90;;;;;;4325018;33;20176;-61
2022/01/28 07:57:52;;;;;;;131.33;125.37;;;4.00;99.90;;;;;;4319185;33;20150;-63
2022/01/28 08:00:31;;;;;;;131.87;125.90;;;4.00;99.90;;;;;;4343241;32;20615;-63
2022/01/28 08:02:58;;;;;;;135.37;128.87;;;4.00;99.90;;;;;;4379081;32;20161;-61
2022/01/28 08:05:45;;;;;;;137.30;131.07;;;4.10;99.90;;;;;;4378710;32;20180;-63
2022/01/28 08:08:25;;;;;;;133.60;127.23;;;4.10;99.90;;;;;;4379516;32;20487;-62
2022/01/28 08:10:57;;;;;;;147.07;140.10;;;4.20;99.90;;;;;;4384640;32;20141;-62
2022/01/28 08:13:29;;;;;;;155.53;147.73;;;4.50;99.90;;;;;;4380854;32;20235;-62
2022/01/28 08:16:34;;;;;;;156.20;149.07;;;4.70;99.90;;;;;;4387153;32;20136;-63
2022/01/28 08:19:12;;;;;;;147.07;139.67;;;5.00;99.90;;;;;;4321606;33;20784;-63
2022/01/28 08:21:44;;;;;;;157.07;149.67;;;5.30;99.90;;;;;;4326925;33;20574;-62
2022/01/28 08:24:21;;;;;;;148.40;141.67;;;5.40;99.90;;;;;;4330791;33;20158;-62
2022/01/28 08:26:57;;;;;;;145.63;138.77;;;5.70;99.90;;;;;;4329509;33;20272;-62
2022/01/28 08:29:27;;;;;;;155.50;148.20;;;5.80;99.90;;;;;;4335647;33;20209;-62
2022/01/28 08:31:57;;;;;;;147.50;140.17;;;5.90;99.90;;;;;;4323454;33;20182;-61
2022/01/28 08:34:31;;;;;;;154.90;147.37;;;6.00;99.90;;;;;;4330592;33;20683;-61
2022/01/28 08:37:07;;;;;;;161.23;153.70;;;6.10;99.90;;;;;;4330618;33;20795;-62
2022/01/28 08:39:39;;;;;;;160.67;153.30;;;6.10;99.90;;;;;;4325411;33;20248;-64
2022/01/28 08:42:14;;;;;;;145.97;139.07;;;6.20;99.90;;;;;;4324018;33;20189;-63
2022/01/28 08:47:34;;;;;;;135.67;129.27;;;6.30;99.90;;;;;;4268297;33;20210;-63
2022/01/28 08:50:14;;;;;;;123.17;117.20;;;6.40;99.90;;;;;;4269790;33;20147;-63
2022/01/28 08:52:46;;;;;;;115.03;109.53;;;6.40;99.90;;;;;;4267454;33;20154;-63
2022/01/28 08:55:17;;;;;;;122.37;116.07;;;6.30;99.90;;;;;;4294764;33;20154;-61
2022/01/28 08:57:58;;;;;;;120.63;114.83;;;6.30;99.90;;;;;;4329157;33;20191;-63
2022/01/28 09:00:27;;;;;;;126.00;120.27;;;6.30;99.90;;;;;;4322553;33;20662;-63
2022/01/28 09:02:56;;;;;;;142.50;135.07;;;6.40;99.90;;;;;;4318162;33;20169;-62
2022/01/28 09:05:28;;;;;;;133.50;127.23;;;6.50;99.90;;;;;;4320750;33;20284;-63
2022/01/28 09:08:07;;;;;;;134.37;128.30;;;6.60;99.90;;;;;;4323541;33;20197;-62
2022/01/28 09:10:42;;;;;;;125.73;120.00;;;6.50;99.90;;;;;;4318152;33;20146;-63
2022/01/28 09:13:25;;;;;;;126.77;120.70;;;6.50;99.90;;;;;;4316075;33;20138;-62
2022/01/28 09:15:56;;;;;;;121.87;116.17;;;6.50;99.90;;;;;;4324871;33;20184;-63
2022/01/28 09:18:40;;;;;;;123.33;117.20;;;6.40;99.90;;;;;;4326107;33;20192;-63
2022/01/28 09:21:07;;;;;;;131.27;125.10;;;6.30;99.90;;;;;;4327243;33;20158;-63
2022/01/28 09:23:34;;;;;;;130.13;123.40;;;6.30;99.90;;;;;;4330646;33;20621;-63
2022/01/28 09:26:07;;;;;;;145.00;137.60;;;6.40;99.90;;;;;;4347993;33;20562;-62
2022/01/28 09:31:17;;;;;;;138.67;132.13;;;6.80;99.90;;;;;;4352799;32;20225;-63
2022/01/28 09:33:54;;;;;;;155.27;148.27;;;7.30;99.90;;;;;;4361940;33;20183;-62
2022/01/28 09:36:33;;;;;;;142.43;135.80;;;7.60;99.90;;;;;;4362777;32;20545;-63
2022/01/28 09:39:06;;;;;;;139.23;132.97;;;7.80;99.90;;;;;;4361858;33;20132;-63
2022/01/28 09:41:36;;;;;;;155.00;148.20;;;7.90;99.90;;;;;;4353376;32;20594;-63
2022/01/28 09:44:09;;;;;;;169.60;162.07;;;8.00;99.90;;;;;;4346909;33;20141;-63
2022/01/28 09:46:37;;;;;;;155.73;148.67;;;8.10;99.90;;;;;;4346901;33;20137;-63
2022/01/28 09:49:04;;;;;;;165.87;158.37;;;8.20;99.90;;;;;;4346999;33;20191;-62
2022/01/28 09:51:31;;;;;;;179.93;171.73;;;8.30;99.90;;;;;;4352592;32;20208;-61
2022/01/28 09:53:59;;;;;;;159.03;151.83;;;8.40;99.90;;;;;;4361763;32;20486;-60
2022/01/28 09:56:35;;;;;;;173.27;165.60;;;8.50;99.90;;;;;;4361512;33;20213;-60
2022/01/28 09:59:23;;;;;;;172.73;164.50;;;8.50;99.90;;;;;;4361576;32;20155;-61
2022/01/28 10:01:51;;;;;;;159.60;152.23;;;8.50;99.90;;;;;;4354402;32;20155;-61
2022/01/28 10:04:21;;;;;;;180.43;172.23;;;8.40;99.90;;;;;;4366711;32;20149;-61
2022/01/28 10:06:50;;;;;;;194.40;186.00;;;8.40;99.90;;;;;;4376219;32;20142;-61
2022/01/28 10:09:26;;;;;;;198.07;189.17;;;8.60;99.90;;;;;;4376384;32;20137;-61
2022/01/28 10:12:17;;;;;;;177.13;168.87;;;8.60;99.90;;;;;;4380728;32;20514;-64
2022/01/28 10:15:04;;;;;;;180.30;171.67;;;8.50;99.90;;;;;;4391176;32;20140;-64
2022/01/28 10:17:58;;;;;;;201.67;192.50;;;8.50;99.90;;;;;;4391222;32;20568;-63
2022/01/28 10:20:49;;;;;;;211.33;201.90;;;8.20;99.90;;;;;;4391467;32;20485;-63
2022/01/28 10:23:22;;;;;;;192.70;183.87;;;8.00;99.90;;;;;;4378179;32;20528;-63
2022/01/28 10:26:01;;;;;;;210.37;200.40;;;7.90;99.90;;;;;;4377581;32;20439;-62
2022/01/28 10:28:35;;;;;;;207.90;198.33;;;8.10;99.90;;;;;;4375999;32;20144;-62
2022/01/28 10:31:12;;;;;;;210.97;201.87;;;8.50;99.90;;;;;;4376001;32;20182;-63
2022/01/28 10:33:43;;;;;;;227.87;218.10;;;8.70;99.90;;;;;;4375720;32;20216;-62
2022/01/28 10:36:13;;;;;;;216.37;206.13;;;8.70;99.90;;;;;;4376567;32;20165;-63
2022/01/28 10:38:45;;;;;;;215.70;205.63;;;8.70;99.90;;;;;;4376521;32;20128;-62
2022/01/28 10:41:20;;;;;;;218.27;208.80;;;8.40;99.90;;;;;;4375909;32;20136;-63
2022/01/28 10:44:00;;;;;;;210.17;200.67;;;8.20;99.90;;;;;;4387468;32;20161;-62
2022/01/28 10:46:58;;;;;;;207.83;198.37;;;8.10;99.90;;;;;;4391274;32;20156;-63
2022/01/28 10:49:49;;;;;;;200.00;190.57;;;7.80;99.90;;;;;;4391154;32;20485;-61
2022/01/28 10:52:30;;;;;;;216.90;207.37;;;7.60;99.90;;;;;;4388221;32;20176;-63
2022/01/28 10:54:57;;;;;;;215.23;205.53;;;7.50;99.90;;;;;;4391490;32;20133;-62
2022/01/28 10:57:30;;;;;;;226.60;216.40;;;7.40;99.90;;;;;;4390934;32;20137;-62
2022/01/28 11:00:04;;;;;;;224.10;213.93;;;7.40;99.90;;;;;;4389030;32;20151;-63
2022/01/28 11:02:31;;;;;;;220.67;211.03;;;7.40;99.90;;;;;;4375823;32;20498;-63
2022/01/28 11:05:06;;;;;;;217.57;207.87;;;7.50;99.90;;;;;;4375122;32;20144;-61
2022/01/28 11:07:38;;;;;;;223.33;214.00;;;7.60;99.90;;;;;;4375639;32;20137;-62
2022/01/28 11:10:05;;;;;;;206.57;196.70;;;7.70;99.90;;;;;;4375523;32;20142;-61
2022/01/28 11:12:32;;;;;;;210.57;201.53;;;7.70;99.90;;;;;;4375282;32;20162;-63
2022/01/28 11:15:01;;;;;;;213.43;203.60;;;7.80;99.90;;;;;;4375490;32;20137;-62
2022/01/28 11:17:29;;;;;;;190.83;182.57;;;7.80;99.90;;;;;;4374880;32;20575;-62
2022/01/28 11:19:59;;;;;;;188.90;180.23;;;7.80;99.90;;;;;;4375341;32;20132;-62
2022/01/28 11:22:50;;;;;;;188.93;180.53;;;7.80;99.90;;;;;;4376896;32;20164;-63
2022/01/28 11:25:36;;;;;;;199.50;190.77;;;7.70;99.90;;;;;;4375521;32;20155;-63
2022/01/28 11:28:08;;;;;;;199.63;190.60;;;7.70;99.90;;;;;;4375672;32;20575;-63
2022/01/28 11:30:37;;;;;;;209.87;199.87;;;7.80;99.90;;;;;;4376679;32;20152;-62
2022/01/28 11:33:11;;;;;;;208.63;199.23;;;7.80;99.90;;;;;;4375214;32;20235;-62
2022/01/28 11:35:59;;;;;;;198.27;189.10;;;7.90;99.90;;;;;;4375541;32;20617;-63
2022/01/28 11:38:49;;;;;;;162.63;154.93;;;8.10;99.90;;;;;;4375319;32;20173;-62
2022/01/28 11:41:25;;;;;;;181.07;172.80;;;8.20;99.90;;;;;;4376073;32;20179;-61
2022/01/28 11:44:01;;;;;;;191.10;182.60;;;8.20;99.90;;;;;;4383338;32;20137;-62
2022/01/28 11:46:38;;;;;;;154.10;146.93;;;8.30;99.90;;;;;;4390298;32;20217;-63
2022/01/28 11:49:22;;;;;;;203.43;194.43;;;8.50;99.90;;;;;;4389042;32;20154;-63
2022/01/28 11:51:50;;;;;;;203.00;194.43;;;8.50;99.90;;;;;;4387173;32;20167;-62
2022/01/28 11:54:37;;;;;;;204.37;195.23;;;8.40;99.90;;;;;;4390447;32;20153;-63
2022/01/28 11:57:24;;;;;;;234.60;224.00;;;8.20;99.90;;;;;;4390539;32;20182;-62
2022/01/28 12:00:13;;;;;;;220.37;210.20;;;7.90;99.90;;;;;;4389770;32;20140;-63
2022/01/28 12:03:14;;;;;;;240.70;230.23;;;7.70;99.90;;;;;;4373277;32;20187;-61
2022/01/28 12:06:03;;;;;;;252.07;241.17;;;7.50;99.90;;;;;;4375013;32;20206;-62
2022/01/28 12:08:34;;;;;;;249.60;238.53;;;7.40;99.90;;;;;;4373876;32;20153;-63
2022/01/28 12:11:07;;;;;;;235.03;224.10;;;7.30;99.90;;;;;;4375233;32;20136;-62
2022/01/28 12:14:01;;;;;;;262.63;251.60;;;7.20;99.90;;;;;;4376682;32;20140;-62
2022/01/28 12:16:32;;;;;;;257.90;246.97;;;7.00;99.90;;;;;;4375435;32;20140;-63
2022/01/28 12:19:05;;;;;;;269.03;257.40;;;7.10;99.90;;;;;;4379380;32;20151;-63
2022/01/28 12:21:34;;;;;;;246.27;235.27;;;7.00;99.90;;;;;;4377967;32;20169;-63
2022/01/28 12:24:32;;;;;;;235.40;225.30;;;7.00;99.90;;;;;;4377821;32;20141;-63
2022/01/28 12:27:06;;;;;;;228.80;218.03;;;7.00;99.90;;;;;;4377789;32;20154;-61
2022/01/28 12:29:39;;;;;;;239.53;229.23;;;7.00;99.90;;;;;;4377658;32;20145;-62
2022/01/28 12:32:10;;;;;;;250.80;240.10;;;7.00;99.90;;;;;;4377819;32;20214;-62
2022/01/28 12:35:00;;;;;;;243.77;232.53;;;7.10;99.90;;;;;;4378077;32;20685;-61
2022/01/28 12:37:58;;;;;;;240.43;230.03;;;7.20;99.90;;;;;;4377025;32;20553;-62
2022/01/28 12:40:52;;;;;;;235.90;226.20;;;7.20;99.90;;;;;;4377642;32;20129;-63
2022/01/28 12:43:28;;;;;;;246.10;235.77;;;7.30;99.90;;;;;;4379273;32;20526;-62
2022/01/28 12:46:09;;;;;;;243.00;232.43;;;7.30;99.90;;;;;;4378706;32;20138;-62
2022/01/28 12:48:58;;;;;;;269.93;258.17;;;7.40;99.90;;;;;;4377926;32;20153;-63
2022/01/28 12:51:40;;;;;;;258.50;247.27;;;7.50;99.90;;;;;;4377622;32;20126;-62
2022/01/28 12:54:12;;;;;;;258.33;247.53;;;7.70;99.90;;;;;;4385199;32;20443;-62
2022/01/28 12:56:43;;;;;;;265.13;253.17;;;7.80;99.90;;;;;;4392470;32;20534;-61
2022/01/28 12:59:11;;;;;;;273.53;261.50;;;7.80;99.90;;;;;;4392824;32;20168;-62
2022/01/28 13:01:39;;;;;;;284.47;272.20;;;7.90;99.90;;;;;;4392241;32;20136;-61
2022/01/28 13:10:11;;;;;;;260.87;249.43;;;8.30;99.90;;;;;;4377870;32;20182;-63
2022/01/28 13:13:04;;;;;;;257.83;246.60;;;8.40;99.90;;;;;;4377752;32;20173;-61
2022/01/28 13:15:33;;;;;;;236.47;225.80;;;8.60;99.90;;;;;;4378786;32;20242;-62
2022/01/28 13:18:17;;;;;;;249.40;238.53;;;8.50;99.90;;;;;;4379230;32;20172;-61
2022/01/28 13:20:47;;;;;;;234.03;223.83;;;8.50;99.90;;;;;;4387028;32;20149;-62
2022/01/28 13:23:19;;;;;;;235.03;224.90;;;8.40;99.90;;;;;;4386414;32;20173;-63
2022/01/28 13:26:10;;;;;;;257.23;246.07;;;8.30;99.90;;;;;;4391345;32;20215;-63
2022/01/28 13:28:49;;;;;;;259.57;248.57;;;8.20;99.90;;;;;;4389904;32;20168;-63
2022/01/28 13:31:48;;;;;;;294.37;281.23;;;8.20;99.90;;;;;;4387076;32;20216;-62
2022/01/28 13:34:25;;;;;;;280.90;268.57;;;8.20;99.90;;;;;;4389943;32;20147;-61
2022/01/28 13:37:08;;;;;;;293.50;280.50;;;8.30;99.90;;;;;;4392410;32;20591;-63
2022/01/28 13:39:49;;;;;;;271.60;260.07;;;8.40;99.90;;;;;;4392794;32;20134;-61
2022/01/28 13:42:22;;;;;;;285.30;273.30;;;8.50;99.90;;;;;;4391334;32;20227;-60
2022/01/28 13:45:15;;;;;;;;;;;;;;;;;;;;;
2022/01/28 13:47:55;;;;;;;260.20;248.90;;;8.50;99.90;;;;;;4390868;32;20151;-62
2022/01/28 13:50:30;;;;;;;268.47;257.07;;;8.50;99.90;;;;;;4389334;32;20151;-62
2022/01/28 13:53:34;;;;;;;301.20;288.13;;;8.60;99.90;;;;;;4387505;32;20176;-61
2022/01/28 13:56:41;;;;;;;284.37;271.73;;;8.70;99.90;;;;;;4387801;32;20586;-61
2022/01/28 13:59:42;;;;;;;292.33;278.83;;;9.10;99.90;;;;;;4389298;32;20166;-64
2022/01/28 14:02:21;;;;;;;290.67;277.83;;;9.10;99.90;;;;;;4392142;32;20564;-64
2022/01/28 14:04:53;;;;;;;306.40;292.53;;;8.90;99.90;;;;;;4394670;32;20166;-62
2022/01/28 14:07:27;;;;;;;307.40;294.07;;;8.80;99.90;;;;;;4376355;32;20135;-62
2022/01/28 14:10:03;;;;;;;320.87;306.30;;;8.70;99.90;;;;;;4376207;32;20145;-62
2022/01/28 14:13:00;;;;;;;317.33;303.40;;;8.70;99.90;;;;;;4376299;32;20136;-62
2022/01/28 14:15:53;;;;;;;332.10;317.27;;;8.80;99.90;;;;;;4378111;32;20201;-61